Time;durP1;ratioP1;P1;durP2;ratioP2;P2;SDS_P1;SDS_P2;PMS_P1;PMS_P2;Temp;Humidity;BMP_temperature;BMP_pressure;BME280_temperature;BME280_humidity;BME280_pressure;Samples;Min_cycle;Max_cycle;Signal;HPM_P1;HPM_P2
2023/12/14 00:01:52;;;;;;;19.87;13.93;;;7.40;99.90;;;;;;5053419;28;20438;-73
2023/12/14 00:04:38;;;;;;;19.13;14.90;;;7.40;99.90;;;;;;5045797;28;20422;-71
2023/12/14 00:07:23;;;;;;;19.67;15.60;;;7.30;99.90;;;;;;5053463;28;20400;-73
2023/12/14 00:10:09;;;;;;;18.83;14.83;;;7.30;99.90;;;;;;5047102;28;20476;-73
2023/12/14 00:12:55;;;;;;;16.50;13.80;;;7.20;99.90;;;;;;5051709;28;20453;-73
2023/12/14 00:15:40;;;;;;;24.40;16.03;;;7.20;99.90;;;;;;5053706;28;20472;-73
2023/12/14 00:18:28;;;;;;;20.10;15.90;;;7.20;99.90;;;;;;5052702;28;21053;-73
2023/12/14 00:21:14;;;;;;;21.73;15.80;;;7.20;99.90;;;;;;5049026;28;20425;-73
2023/12/14 00:23:59;;;;;;;22.30;15.80;;;7.20;99.90;;;;;;5053054;28;20909;-73
2023/12/14 00:26:45;;;;;;;18.60;15.60;;;7.20;99.90;;;;;;5053145;28;20441;-73
2023/12/14 00:29:31;;;;;;;24.93;17.00;;;7.20;99.90;;;;;;5040449;28;20803;-73
2023/12/14 00:32:16;;;;;;;27.43;16.77;;;7.20;99.90;;;;;;5053300;28;20419;-73
2023/12/14 00:35:04;;;;;;;25.23;16.37;;;7.20;99.90;;;;;;5052772;28;20453;-74
2023/12/14 00:37:49;;;;;;;19.70;14.97;;;7.30;99.90;;;;;;5053115;28;20425;-73
2023/12/14 00:40:35;;;;;;;28.47;16.07;;;7.30;99.90;;;;;;5050183;28;20429;-73
2023/12/14 00:43:21;;;;;;;29.27;17.33;;;7.30;99.90;;;;;;5053225;28;20945;-73
2023/12/14 00:46:06;;;;;;;24.47;16.27;;;7.20;99.90;;;;;;5051240;28;20568;-73
2023/12/14 00:48:52;;;;;;;27.43;17.30;;;7.30;99.90;;;;;;5053111;28;20824;-73
2023/12/14 00:51:40;;;;;;;23.37;17.33;;;7.40;99.90;;;;;;5044414;28;20486;-73
2023/12/14 00:54:25;;;;;;;23.90;16.50;;;7.50;99.90;;;;;;5039973;28;20422;-73
2023/12/14 00:57:11;;;;;;;18.90;15.77;;;7.50;99.90;;;;;;5041422;28;20480;-73
2023/12/14 00:59:56;;;;;;;23.97;16.03;;;7.50;99.90;;;;;;5041119;28;20446;-73
2023/12/14 01:02:42;;;;;;;20.10;16.60;;;7.50;99.90;;;;;;5032806;28;20439;-73
2023/12/14 01:05:28;;;;;;;18.23;14.70;;;7.60;99.90;;;;;;5041211;28;20426;-74
2023/12/14 01:08:15;;;;;;;22.27;15.90;;;7.70;99.90;;;;;;5025405;28;20397;-73
2023/12/14 01:11:01;;;;;;;20.63;13.90;;;7.70;99.90;;;;;;5033372;28;20885;-73
2023/12/14 01:13:46;;;;;;;20.20;14.13;;;7.70;99.90;;;;;;5033560;28;20405;-73
2023/12/14 01:16:32;;;;;;;20.20;15.20;;;7.70;99.90;;;;;;5028149;28;20793;-73
2023/12/14 01:19:18;;;;;;;19.00;14.77;;;7.70;99.90;;;;;;5037319;28;20457;-73
2023/12/14 01:22:03;;;;;;;23.17;15.83;;;7.70;99.90;;;;;;5037763;28;20427;-73
2023/12/14 01:24:51;;;;;;;24.10;16.43;;;7.60;99.90;;;;;;5041453;28;20477;-73
2023/12/14 01:27:36;;;;;;;21.00;15.00;;;7.60;99.90;;;;;;5033599;28;20854;-73
2023/12/14 01:30:22;;;;;;;24.27;16.30;;;7.50;99.90;;;;;;5030574;28;20477;-73
2023/12/14 01:33:07;;;;;;;19.47;16.20;;;7.50;99.90;;;;;;5036261;28;20568;-73
2023/12/14 01:35:53;;;;;;;22.80;16.70;;;7.50;99.90;;;;;;5044604;28;20588;-73
2023/12/14 01:38:39;;;;;;;22.03;16.47;;;7.50;99.90;;;;;;5035013;28;21000;-73
2023/12/14 01:41:25;;;;;;;22.23;15.60;;;7.50;99.90;;;;;;5026950;28;20419;-73
2023/12/14 01:44:11;;;;;;;28.57;15.93;;;7.40;99.90;;;;;;5041722;28;20440;-73
2023/12/14 01:46:56;;;;;;;24.10;16.53;;;7.50;99.90;;;;;;5034028;28;20692;-73
2023/12/14 01:49:42;;;;;;;23.13;16.10;;;7.50;99.90;;;;;;5033290;28;20482;-73
2023/12/14 01:52:28;;;;;;;24.40;14.80;;;7.50;99.90;;;;;;5037184;28;20553;-74
2023/12/14 01:55:14;;;;;;;22.50;16.73;;;7.60;99.90;;;;;;5038551;28;20561;-73
2023/12/14 01:58:01;;;;;;;16.77;14.93;;;7.50;99.90;;;;;;5033761;28;20405;-73
2023/12/14 02:00:51;;;;;;;22.27;16.37;;;7.60;99.90;;;;;;5033586;28;20410;-73
2023/12/14 02:03:37;;;;;;;22.60;15.23;;;7.60;99.90;;;;;;5028594;28;20472;-73
2023/12/14 02:06:22;;;;;;;22.73;17.10;;;7.70;99.90;;;;;;5033218;28;20486;-73
2023/12/14 02:09:08;;;;;;;22.63;18.00;;;7.60;99.90;;;;;;5033934;28;20485;-73
2023/12/14 02:11:54;;;;;;;18.93;15.37;;;7.60;99.90;;;;;;5032912;28;20449;-73
2023/12/14 02:14:41;;;;;;;20.20;16.00;;;7.60;99.90;;;;;;5040753;28;20448;-73
2023/12/14 02:17:26;;;;;;;24.30;16.07;;;7.60;99.90;;;;;;5033629;28;20434;-73
2023/12/14 02:20:12;;;;;;;15.97;14.37;;;7.60;99.90;;;;;;5033126;28;20598;-73
2023/12/14 02:22:59;;;;;;;21.27;15.03;;;7.70;99.90;;;;;;5036071;28;20957;-73
2023/12/14 02:25:44;;;;;;;20.17;15.77;;;7.70;99.90;;;;;;5040621;28;20453;-73
2023/12/14 02:28:30;;;;;;;23.97;17.00;;;7.70;99.90;;;;;;5026834;28;20475;-73
2023/12/14 02:31:16;;;;;;;22.03;17.10;;;7.80;99.90;;;;;;5039921;28;21026;-73
2023/12/14 02:34:02;;;;;;;22.07;16.93;;;7.70;99.90;;;;;;5033066;28;20450;-73
2023/12/14 02:36:47;;;;;;;22.03;16.23;;;7.70;99.90;;;;;;5032927;28;20909;-73
2023/12/14 02:39:34;;;;;;;23.00;15.80;;;7.60;99.90;;;;;;5028306;28;20450;-72
2023/12/14 02:42:20;;;;;;;19.83;16.10;;;7.70;99.90;;;;;;5026102;28;20513;-71
2023/12/14 02:45:08;;;;;;;22.47;15.93;;;7.80;99.90;;;;;;5040452;28;20411;-73
2023/12/14 02:47:54;;;;;;;20.60;17.17;;;7.70;99.90;;;;;;5050896;28;20495;-73
2023/12/14 02:50:40;;;;;;;20.93;16.87;;;7.80;99.90;;;;;;5036880;28;20452;-73
2023/12/14 02:53:25;;;;;;;28.03;17.10;;;7.80;99.90;;;;;;5026976;28;20401;-73
2023/12/14 02:56:12;;;;;;;21.53;16.33;;;7.80;99.90;;;;;;5033873;28;20430;-74
2023/12/14 02:58:58;;;;;;;19.97;15.10;;;7.80;99.90;;;;;;5041831;28;20486;-73
2023/12/14 03:01:43;;;;;;;18.70;16.00;;;7.80;99.90;;;;;;5032649;28;20451;-73
2023/12/14 03:04:29;;;;;;;20.43;16.00;;;7.80;99.90;;;;;;5039113;28;20565;-73
2023/12/14 03:07:15;;;;;;;20.17;15.33;;;7.90;99.90;;;;;;5034512;28;20434;-73
2023/12/14 03:10:00;;;;;;;19.97;15.00;;;7.80;99.90;;;;;;5033732;28;20456;-73
2023/12/14 03:12:48;;;;;;;19.27;15.60;;;7.80;99.90;;;;;;5039978;28;20437;-73
2023/12/14 03:15:33;;;;;;;19.30;16.13;;;7.80;99.90;;;;;;5038553;28;20892;-73
2023/12/14 03:18:19;;;;;;;19.03;15.83;;;7.90;99.90;;;;;;5036017;28;20426;-74
2023/12/14 03:21:05;;;;;;;17.93;14.63;;;7.80;99.90;;;;;;5045461;28;20508;-73
2023/12/14 03:23:51;;;;;;;18.83;15.00;;;7.80;99.90;;;;;;5040460;28;20431;-73
2023/12/14 03:26:36;;;;;;;22.23;15.67;;;7.90;99.90;;;;;;5028140;28;20502;-73
2023/12/14 03:29:23;;;;;;;25.77;15.47;;;7.90;99.90;;;;;;5026646;28;20454;-73
2023/12/14 03:32:09;;;;;;;21.60;15.50;;;7.90;99.90;;;;;;5041063;28;20512;-73
2023/12/14 03:34:55;;;;;;;24.27;16.47;;;7.90;99.90;;;;;;5041301;28;20536;-73
2023/12/14 03:37:40;;;;;;;17.90;14.50;;;7.90;99.90;;;;;;5036349;28;20430;-73
2023/12/14 03:40:26;;;;;;;20.80;16.27;;;7.90;99.90;;;;;;5026820;28;20434;-73
2023/12/14 03:43:12;;;;;;;18.53;15.43;;;7.90;99.90;;;;;;5043330;28;20944;-74
2023/12/14 03:45:59;;;;;;;18.90;15.80;;;7.90;99.90;;;;;;5041330;28;20407;-73
2023/12/14 03:48:44;;;;;;;19.57;14.87;;;7.80;99.90;;;;;;5033254;28;20449;-73
2023/12/14 03:51:30;;;;;;;23.93;16.40;;;7.70;99.90;;;;;;5038566;28;20831;-73
2023/12/14 03:54:15;;;;;;;19.03;15.10;;;7.60;99.90;;;;;;5037627;28;20432;-74
2023/12/14 03:57:01;;;;;;;21.97;16.40;;;7.60;99.90;;;;;;5034919;28;20530;-73
2023/12/14 03:59:47;;;;;;;20.07;14.80;;;7.60;99.90;;;;;;5033587;28;20461;-73
2023/12/14 04:02:34;;;;;;;18.90;14.87;;;7.70;99.90;;;;;;5035021;28;20431;-73
2023/12/14 04:05:19;;;;;;;22.53;14.70;;;7.70;99.90;;;;;;5036176;28;20441;-73
2023/12/14 04:08:05;;;;;;;20.53;16.10;;;7.80;99.90;;;;;;5035969;28;20487;-73
2023/12/14 04:10:51;;;;;;;19.30;14.50;;;7.80;99.90;;;;;;5033338;28;20468;-73
2023/12/14 04:13:36;;;;;;;18.30;15.17;;;7.80;99.90;;;;;;5034080;28;20426;-73
2023/12/14 04:16:22;;;;;;;20.80;16.40;;;7.80;99.90;;;;;;5040529;28;20928;-73
2023/12/14 04:19:10;;;;;;;20.77;14.50;;;7.70;99.90;;;;;;5035006;28;20464;-73
2023/12/14 04:21:55;;;;;;;22.10;15.87;;;7.70;99.90;;;;;;5039747;28;20440;-73
2023/12/14 04:24:41;;;;;;;19.50;15.10;;;7.70;99.90;;;;;;5029563;28;20433;-73
2023/12/14 04:27:28;;;;;;;21.00;15.53;;;7.60;99.90;;;;;;5033187;28;20426;-73
2023/12/14 04:30:14;;;;;;;21.40;15.17;;;7.70;99.90;;;;;;5033345;28;21035;-73
2023/12/14 04:32:59;;;;;;;20.47;16.00;;;7.60;99.90;;;;;;5035627;28;20566;-73
2023/12/14 04:35:46;;;;;;;21.70;14.70;;;7.60;99.90;;;;;;5042901;28;20414;-73
2023/12/14 04:38:31;;;;;;;22.47;16.10;;;7.70;99.90;;;;;;5040893;28;20916;-73
2023/12/14 04:41:17;;;;;;;28.33;15.83;;;7.80;99.90;;;;;;5039536;28;20410;-73
2023/12/14 04:44:03;;;;;;;19.93;15.40;;;7.70;99.90;;;;;;5039663;28;20427;-73
2023/12/14 04:46:49;;;;;;;18.93;14.40;;;7.70;99.90;;;;;;5037792;28;20450;-73
2023/12/14 04:49:34;;;;;;;18.50;15.47;;;7.70;99.90;;;;;;5047566;28;20575;-73
2023/12/14 04:52:21;;;;;;;24.13;15.30;;;7.70;99.90;;;;;;5045806;28;20476;-73
2023/12/14 04:55:08;;;;;;;22.07;15.17;;;7.60;99.90;;;;;;5044719;28;20912;-73
2023/12/14 04:57:53;;;;;;;24.13;16.03;;;7.60;99.90;;;;;;5038609;28;20782;-73
2023/12/14 05:00:39;;;;;;;23.47;15.70;;;7.70;99.90;;;;;;5041429;28;20792;-73
2023/12/14 05:03:25;;;;;;;24.77;16.77;;;7.70;99.90;;;;;;5037349;28;20792;-73
2023/12/14 05:06:11;;;;;;;21.43;15.83;;;7.70;99.90;;;;;;5039238;28;20433;-73
2023/12/14 05:08:58;;;;;;;23.00;17.00;;;7.60;99.90;;;;;;5044689;28;20452;-73
2023/12/14 05:11:44;;;;;;;24.90;18.23;;;7.70;99.90;;;;;;5039410;28;20462;-73
2023/12/14 05:14:30;;;;;;;24.07;16.53;;;7.80;99.90;;;;;;5037315;28;20432;-73
2023/12/14 05:17:15;;;;;;;25.87;18.10;;;7.80;99.90;;;;;;5037089;28;20540;-73
2023/12/14 05:20:02;;;;;;;26.07;17.50;;;7.80;99.90;;;;;;5044473;28;20444;-74
2023/12/14 05:22:47;;;;;;;23.30;16.10;;;7.80;99.90;;;;;;5034348;28;20443;-73
2023/12/14 05:25:34;;;;;;;19.97;15.83;;;7.80;99.90;;;;;;5036055;28;20829;-73
2023/12/14 05:28:20;;;;;;;19.23;14.97;;;7.80;99.90;;;;;;5051946;28;20500;-71
2023/12/14 05:31:05;;;;;;;27.47;16.27;;;7.80;99.90;;;;;;5040220;28;20617;-71
2023/12/14 05:33:51;;;;;;;26.50;17.30;;;7.70;99.90;;;;;;5040113;28;20413;-73
2023/12/14 05:36:37;;;;;;;21.97;16.23;;;7.80;99.90;;;;;;5039052;28;20430;-73
2023/12/14 05:39:23;;;;;;;26.90;18.60;;;7.80;99.90;;;;;;5038771;28;20576;-73
2023/12/14 05:42:10;;;;;;;23.30;16.80;;;7.80;99.90;;;;;;5039097;28;20806;-73
2023/12/14 05:44:55;;;;;;;26.17;16.93;;;7.80;99.90;;;;;;5038505;28;20406;-73
2023/12/14 05:47:41;;;;;;;26.60;17.40;;;7.80;99.90;;;;;;5032796;28;20430;-73
2023/12/14 05:50:27;;;;;;;28.87;19.23;;;7.90;99.90;;;;;;5038826;28;20803;-73
2023/12/14 05:53:13;;;;;;;24.80;17.40;;;7.90;99.90;;;;;;5042969;28;20431;-73
2023/12/14 05:55:59;;;;;;;30.60;19.30;;;7.80;99.90;;;;;;5038263;28;21068;-73
2023/12/14 05:58:46;;;;;;;29.90;19.37;;;7.90;99.90;;;;;;5039285;28;20453;-73
2023/12/14 06:01:31;;;;;;;28.67;19.03;;;7.90;99.90;;;;;;5034967;28;20430;-73
2023/12/14 06:04:17;;;;;;;29.93;19.87;;;7.90;99.90;;;;;;5040194;28;20417;-73
2023/12/14 06:07:03;;;;;;;24.60;17.00;;;8.00;99.90;;;;;;5046095;28;20441;-73
2023/12/14 06:09:49;;;;;;;26.97;19.50;;;8.00;99.90;;;;;;5033408;28;20421;-73
2023/12/14 06:12:34;;;;;;;29.47;18.60;;;8.00;99.90;;;;;;5037626;28;20461;-73
2023/12/14 06:15:21;;;;;;;24.27;17.70;;;8.10;99.90;;;;;;5037373;28;20503;-73
2023/12/14 06:18:07;;;;;;;30.27;17.30;;;8.10;99.90;;;;;;5045118;28;20560;-73
2023/12/14 06:20:52;;;;;;;24.97;19.03;;;8.00;99.90;;;;;;5039067;28;20443;-73
2023/12/14 06:23:38;;;;;;;24.53;17.27;;;8.00;99.90;;;;;;5032715;28;20408;-73
2023/12/14 06:26:24;;;;;;;24.33;16.87;;;8.00;99.90;;;;;;5036234;28;20426;-73
2023/12/14 06:29:10;;;;;;;22.60;17.60;;;7.90;99.90;;;;;;5044802;28;20445;-73
2023/12/14 06:31:57;;;;;;;26.77;18.10;;;8.00;99.90;;;;;;5041041;28;20473;-73
2023/12/14 06:34:43;;;;;;;25.37;20.70;;;8.00;99.90;;;;;;5033152;28;20774;-73
2023/12/14 06:37:28;;;;;;;24.67;19.73;;;8.00;99.90;;;;;;5036118;28;20438;-73
2023/12/14 06:40:14;;;;;;;29.53;18.73;;;8.10;99.90;;;;;;5042355;28;20554;-72
2023/12/14 06:43:00;;;;;;;32.10;21.90;;;8.10;99.90;;;;;;5037612;28;20918;-73
2023/12/14 06:45:46;;;;;;;27.90;19.70;;;8.10;99.90;;;;;;5038672;28;20408;-73
2023/12/14 06:48:33;;;;;;;30.03;21.33;;;8.00;99.90;;;;;;5036762;28;20990;-73
2023/12/14 06:51:18;;;;;;;27.83;19.40;;;7.90;99.90;;;;;;5037096;28;20477;-73
2023/12/14 06:54:04;;;;;;;29.97;21.03;;;8.00;99.90;;;;;;5036068;28;20435;-73
2023/12/14 06:56:49;;;;;;;29.27;21.13;;;8.00;99.90;;;;;;5034082;28;20435;-73
2023/12/14 06:59:35;;;;;;;27.70;20.00;;;8.10;99.90;;;;;;5032015;28;20813;-73
2023/12/14 07:02:21;;;;;;;32.13;20.00;;;8.00;99.90;;;;;;5043152;28;20889;-73
2023/12/14 07:05:09;;;;;;;29.23;21.77;;;8.00;99.90;;;;;;5040934;28;20473;-73
2023/12/14 07:07:56;;;;;;;32.70;21.50;;;8.00;99.90;;;;;;5034535;28;20941;-73
2023/12/14 07:10:42;;;;;;;28.30;21.47;;;8.00;99.90;;;;;;5037132;28;20420;-73
2023/12/14 07:13:28;;;;;;;29.23;21.70;;;7.90;99.90;;;;;;5040744;28;20434;-73
2023/12/14 07:16:17;;;;;;;30.60;19.70;;;8.00;99.90;;;;;;5040562;28;20431;-73
2023/12/14 07:19:03;;;;;;;33.00;19.87;;;8.10;99.90;;;;;;5043058;28;20834;-73
2023/12/14 07:21:51;;;;;;;30.53;21.10;;;8.00;99.90;;;;;;5050352;28;20909;-73
2023/12/14 07:24:36;;;;;;;28.17;19.00;;;8.00;99.90;;;;;;5032374;28;20431;-73
2023/12/14 07:27:22;;;;;;;32.60;19.27;;;8.00;99.90;;;;;;5036983;28;20425;-73
2023/12/14 07:30:09;;;;;;;27.47;18.50;;;8.00;99.90;;;;;;5042697;28;20487;-73
2023/12/14 07:32:54;;;;;;;29.80;18.33;;;8.00;99.90;;;;;;5035920;28;20451;-73
2023/12/14 07:35:40;;;;;;;30.40;20.07;;;8.00;99.90;;;;;;5037456;28;20425;-73
2023/12/14 07:38:27;;;;;;;29.77;18.43;;;8.10;99.90;;;;;;5039000;28;20458;-73
2023/12/14 07:41:13;;;;;;;29.17;17.83;;;8.10;99.90;;;;;;5040381;28;20430;-73
2023/12/14 07:43:59;;;;;;;25.70;18.23;;;8.10;99.90;;;;;;5038976;28;20412;-73
2023/12/14 07:46:44;;;;;;;30.83;17.77;;;8.10;99.90;;;;;;5037289;28;20409;-73
2023/12/14 07:49:30;;;;;;;32.10;19.70;;;8.10;99.90;;;;;;5037129;28;20950;-73
2023/12/14 07:52:16;;;;;;;27.47;19.47;;;8.00;99.90;;;;;;5039455;28;21003;-73
2023/12/14 07:55:04;;;;;;;29.47;19.30;;;8.10;99.90;;;;;;5039245;28;20969;-73
2023/12/14 07:57:50;;;;;;;29.67;19.03;;;8.20;99.90;;;;;;5039501;28;20779;-73
2023/12/14 08:00:35;;;;;;;27.90;18.80;;;8.20;99.90;;;;;;5037670;28;20948;-73
2023/12/14 08:03:21;;;;;;;30.20;20.30;;;8.20;99.90;;;;;;5042201;28;20405;-73
2023/12/14 08:06:07;;;;;;;26.10;19.23;;;8.10;99.90;;;;;;5039197;28;20460;-73
2023/12/14 08:08:53;;;;;;;39.13;21.00;;;8.20;99.90;;;;;;5042840;28;20500;-73
2023/12/14 08:11:40;;;;;;;33.80;21.23;;;8.10;99.90;;;;;;5031892;28;20470;-73
2023/12/14 08:14:25;;;;;;;27.60;18.70;;;8.20;99.90;;;;;;5041711;28;20426;-73
2023/12/14 08:17:11;;;;;;;26.00;19.47;;;8.30;99.90;;;;;;5044815;28;20432;-73
2023/12/14 08:19:57;;;;;;;26.47;18.67;;;8.30;99.90;;;;;;5040462;28;20462;-72
2023/12/14 08:22:44;;;;;;;31.07;19.77;;;8.40;99.90;;;;;;5037542;28;20549;-73
2023/12/14 08:25:30;;;;;;;28.77;20.57;;;8.30;99.90;;;;;;5043640;28;20438;-73
2023/12/14 08:28:17;;;;;;;32.10;22.43;;;8.30;99.90;;;;;;5045177;28;20480;-73
2023/12/14 08:31:03;;;;;;;42.50;25.50;;;8.40;99.90;;;;;;5043329;28;20509;-73
2023/12/14 08:33:48;;;;;;;46.30;24.50;;;8.40;99.90;;;;;;5038482;28;20430;-73
2023/12/14 08:36:34;;;;;;;39.00;25.33;;;8.50;99.90;;;;;;5042459;28;20552;-73
2023/12/14 08:39:20;;;;;;;38.20;27.27;;;8.50;99.90;;;;;;5039316;28;21016;-73
2023/12/14 08:42:05;;;;;;;45.73;26.90;;;8.50;99.90;;;;;;5046577;28;20873;-73
2023/12/14 08:44:52;;;;;;;37.47;23.10;;;8.50;99.90;;;;;;5038945;28;20969;-73
2023/12/14 08:47:38;;;;;;;39.10;24.20;;;8.50;99.90;;;;;;5044916;28;21088;-73
2023/12/14 08:50:26;;;;;;;43.07;23.67;;;8.40;99.90;;;;;;5047300;28;20450;-73
2023/12/14 08:53:11;;;;;;;34.63;23.23;;;8.50;99.90;;;;;;5044512;28;20663;-72
2023/12/14 08:55:57;;;;;;;39.50;23.40;;;8.60;99.90;;;;;;5040670;28;20917;-73
2023/12/14 08:58:42;;;;;;;33.90;21.23;;;8.60;99.90;;;;;;5036890;28;20455;-73
2023/12/14 09:01:29;;;;;;;27.37;19.40;;;8.60;99.90;;;;;;5043813;28;20430;-73
2023/12/14 09:04:15;;;;;;;28.47;20.13;;;8.60;99.90;;;;;;5041194;28;20451;-73
2023/12/14 09:07:01;;;;;;;32.13;21.07;;;8.70;99.90;;;;;;5041534;28;20797;-73
2023/12/14 09:09:46;;;;;;;36.53;20.60;;;8.70;99.90;;;;;;5041830;28;20456;-73
2023/12/14 09:12:32;;;;;;;30.33;19.37;;;8.70;99.90;;;;;;5040103;28;20842;-73
2023/12/14 09:15:18;;;;;;;27.07;18.20;;;8.80;99.90;;;;;;5041432;28;20423;-73
2023/12/14 09:18:05;;;;;;;30.80;18.77;;;8.80;99.90;;;;;;5042449;28;20590;-73
2023/12/14 09:20:51;;;;;;;29.50;19.30;;;8.80;99.90;;;;;;5037815;28;20419;-73
2023/12/14 09:23:36;;;;;;;22.40;15.97;;;8.80;99.90;;;;;;5041496;28;20533;-73
2023/12/14 09:26:22;;;;;;;27.43;17.83;;;8.80;99.90;;;;;;5041248;28;20481;-73
2023/12/14 09:29:08;;;;;;;22.70;13.80;;;8.90;99.90;;;;;;5043975;28;20562;-73
2023/12/14 09:31:54;;;;;;;23.47;15.23;;;8.80;99.90;;;;;;5039372;28;20610;-73
2023/12/14 09:34:41;;;;;;;22.03;11.63;;;8.80;99.90;;;;;;5047226;28;20577;-73
2023/12/14 09:37:26;;;;;;;15.87;10.63;;;8.80;99.90;;;;;;5040080;28;20400;-73
2023/12/14 09:40:12;;;;;;;17.73;10.47;;;8.90;99.90;;;;;;5031271;28;20473;-72
2023/12/14 09:42:58;;;;;;;16.30;10.70;;;8.90;99.90;;;;;;5042550;28;20402;-72
2023/12/14 09:45:44;;;;;;;25.53;11.40;;;8.90;99.90;;;;;;5038029;28;20523;-73
2023/12/14 09:48:32;;;;;;;15.27;10.03;;;9.00;99.90;;;;;;5040853;28;20509;-72
2023/12/14 09:51:19;;;;;;;21.70;12.37;;;9.00;99.90;;;;;;5040672;28;20439;-72
2023/12/14 09:54:05;;;;;;;16.13;10.37;;;9.00;99.90;;;;;;5042491;28;20902;-73
2023/12/14 09:56:52;;;;;;;11.40;9.10;;;9.00;99.90;;;;;;5040853;28;21114;-73
2023/12/14 09:59:39;;;;;;;14.93;10.70;;;9.00;99.90;;;;;;5042877;28;20427;-73
2023/12/14 10:02:27;;;;;;;12.60;9.00;;;8.90;99.90;;;;;;5045433;28;20724;-73
2023/12/14 10:05:13;;;;;;;24.43;10.50;;;8.80;99.90;;;;;;5035372;28;20799;-73
2023/12/14 10:08:00;;;;;;;16.07;10.20;;;8.70;99.90;;;;;;5039852;28;20509;-73
2023/12/14 10:10:45;;;;;;;18.30;11.57;;;8.70;99.90;;;;;;5041419;28;20435;-73
2023/12/14 10:13:38;;;;;;;16.33;10.70;;;8.70;99.90;;;;;;5042512;28;20456;-73
2023/12/14 10:16:31;;;;;;;16.57;10.50;;;8.60;99.90;;;;;;5038016;28;20566;-73
2023/12/14 10:19:18;;;;;;;15.63;11.07;;;8.60;99.90;;;;;;5044719;28;20545;-73
2023/12/14 10:22:04;;;;;;;17.83;12.20;;;8.50;99.90;;;;;;5043955;28;20547;-73
2023/12/14 10:24:51;;;;;;;17.30;12.27;;;8.50;99.90;;;;;;5037425;28;20410;-73
2023/12/14 10:27:38;;;;;;;21.77;13.00;;;8.60;99.90;;;;;;5045476;28;20429;-73
2023/12/14 10:30:24;;;;;;;18.20;12.90;;;8.70;99.90;;;;;;5044479;28;20444;-73
2023/12/14 10:33:10;;;;;;;14.70;11.13;;;8.70;99.90;;;;;;5045063;28;20485;-73
2023/12/14 10:35:56;;;;;;;21.37;12.67;;;8.70;99.90;;;;;;5039371;28;20447;-73
2023/12/14 10:38:45;;;;;;;18.60;12.50;;;8.80;99.90;;;;;;5041945;28;20445;-73
2023/12/14 10:41:34;;;;;;;21.10;12.90;;;8.80;99.90;;;;;;5042239;28;20484;-73
2023/12/14 10:44:20;;;;;;;20.13;13.00;;;8.80;99.90;;;;;;5041104;28;20420;-73
2023/12/14 10:47:08;;;;;;;21.70;13.27;;;8.90;99.90;;;;;;5045970;28;20979;-73
2023/12/14 10:49:55;;;;;;;19.73;14.30;;;8.90;99.90;;;;;;5042506;28;20455;-73
2023/12/14 10:52:41;;;;;;;17.03;11.90;;;8.90;99.90;;;;;;5039879;28;20607;-73
2023/12/14 10:55:32;;;;;;;18.57;13.33;;;8.70;99.90;;;;;;5037080;28;20449;-73
2023/12/14 10:58:21;;;;;;;17.30;11.70;;;8.70;99.90;;;;;;5046983;28;21036;-73
2023/12/14 11:01:07;;;;;;;21.10;13.77;;;8.80;99.90;;;;;;5042193;28;20569;-73
2023/12/14 11:03:56;;;;;;;20.20;12.13;;;8.80;99.90;;;;;;5045004;28;20431;-73
2023/12/14 11:06:46;;;;;;;18.80;11.63;;;8.80;99.90;;;;;;5043731;28;20564;-73
2023/12/14 11:09:33;;;;;;;22.27;12.50;;;8.90;99.90;;;;;;5041552;28;20840;-73
2023/12/14 11:12:22;;;;;;;15.50;12.40;;;8.90;99.90;;;;;;5040574;28;20862;-73
2023/12/14 11:15:10;;;;;;;15.47;11.33;;;8.90;99.90;;;;;;5043974;28;20592;-73
2023/12/14 11:18:22;;;;;;;20.83;14.47;;;8.90;99.90;;;;;;5047750;28;20567;-73
2023/12/14 11:21:08;;;;;;;20.70;14.40;;;8.90;99.90;;;;;;5040996;28;21240;-73
2023/12/14 11:23:53;;;;;;;21.17;14.47;;;8.90;99.90;;;;;;5042632;28;20980;-73
2023/12/14 11:26:39;;;;;;;20.13;14.13;;;8.90;99.90;;;;;;5039973;28;20427;-73
2023/12/14 11:29:25;;;;;;;19.63;12.83;;;9.00;99.90;;;;;;5041102;28;20496;-73
2023/12/14 11:32:12;;;;;;;20.63;13.40;;;9.10;99.90;;;;;;5043877;28;20504;-73
2023/12/14 11:34:58;;;;;;;17.60;12.50;;;9.10;99.90;;;;;;5041232;28;20439;-73
2023/12/14 11:37:43;;;;;;;19.27;12.40;;;9.10;99.90;;;;;;5045286;28;20421;-73
2023/12/14 11:40:30;;;;;;;19.63;13.37;;;9.10;99.90;;;;;;5041315;28;20887;-73
2023/12/14 11:43:15;;;;;;;23.57;13.20;;;8.90;99.90;;;;;;5039814;28;20397;-73
2023/12/14 11:46:01;;;;;;;24.57;14.93;;;8.80;99.90;;;;;;5041524;28;20431;-73
2023/12/14 11:48:48;;;;;;;21.67;16.17;;;8.90;99.90;;;;;;5048360;28;20905;-73
2023/12/14 11:51:34;;;;;;;20.47;14.47;;;8.90;99.90;;;;;;5041419;28;20433;-73
2023/12/14 11:54:20;;;;;;;21.57;14.53;;;8.90;99.90;;;;;;5044992;28;20466;-73
2023/12/14 11:57:08;;;;;;;20.13;14.10;;;9.00;99.90;;;;;;5049278;28;20431;-73
2023/12/14 11:59:54;;;;;;;29.57;14.50;;;9.00;99.90;;;;;;5045106;28;20456;-73
2023/12/14 12:02:40;;;;;;;21.60;14.57;;;9.10;99.90;;;;;;5047886;28;20424;-74
2023/12/14 12:05:38;;;;;;;20.17;14.10;;;8.90;99.90;;;;;;5048178;28;20434;-73
2023/12/14 12:08:23;;;;;;;25.60;14.30;;;9.00;99.90;;;;;;5053919;28;20401;-73
2023/12/14 12:11:09;;;;;;;18.00;12.67;;;9.00;99.90;;;;;;5050309;28;20431;-73
2023/12/14 12:13:56;;;;;;;17.20;11.70;;;9.00;99.90;;;;;;5044246;28;20474;-73
2023/12/14 12:16:41;;;;;;;21.63;11.93;;;9.00;99.90;;;;;;5049887;28;20435;-73
2023/12/14 12:19:27;;;;;;;17.60;12.17;;;8.90;99.90;;;;;;5047408;28;20593;-73
2023/12/14 12:22:14;;;;;;;23.07;13.70;;;8.90;99.90;;;;;;5048854;28;20477;-72
2023/12/14 12:25:00;;;;;;;16.07;12.33;;;8.90;99.90;;;;;;5044867;28;20786;-74
2023/12/14 12:27:47;;;;;;;24.13;12.07;;;9.00;99.90;;;;;;5045905;28;20413;-73
2023/12/14 12:30:33;;;;;;;19.37;11.00;;;8.90;99.90;;;;;;5047669;28;20436;-72
2023/12/14 12:33:20;;;;;;;18.70;10.90;;;9.00;99.90;;;;;;5043939;28;20481;-72
2023/12/14 12:36:06;;;;;;;14.80;10.40;;;8.90;99.90;;;;;;5035170;28;20426;-73
2023/12/14 12:38:53;;;;;;;13.33;9.67;;;8.90;99.90;;;;;;5046580;28;20488;-73
2023/12/14 12:41:39;;;;;;;12.50;9.40;;;8.90;99.90;;;;;;5040924;28;20944;-72
2023/12/14 12:44:25;;;;;;;11.70;8.80;;;8.80;99.90;;;;;;5046858;28;20445;-72
2023/12/14 12:47:11;;;;;;;13.43;9.37;;;8.90;99.90;;;;;;5049204;28;20777;-73
2023/12/14 12:49:56;;;;;;;10.00;7.70;;;8.90;99.90;;;;;;5051055;28;20500;-73
2023/12/14 12:52:43;;;;;;;12.37;8.73;;;9.00;99.90;;;;;;5041029;28;20420;-72
2023/12/14 12:55:30;;;;;;;10.40;7.43;;;9.00;99.90;;;;;;5041245;28;20426;-74
2023/12/14 12:58:16;;;;;;;10.90;8.07;;;9.10;99.90;;;;;;5049395;28;20566;-74
2023/12/14 13:01:02;;;;;;;13.87;8.27;;;9.10;99.90;;;;;;5043889;28;20427;-74
2023/12/14 13:03:47;;;;;;;11.30;7.23;;;9.10;99.90;;;;;;5046892;28;20489;-74
2023/12/14 13:06:33;;;;;;;11.53;7.33;;;9.10;99.90;;;;;;5047621;28;20433;-74
2023/12/14 13:09:20;;;;;;;9.30;6.60;;;9.10;99.90;;;;;;5040181;28;20463;-74
2023/12/14 13:12:07;;;;;;;7.67;6.10;;;9.00;99.90;;;;;;5048759;28;20429;-74
2023/12/14 13:14:54;;;;;;;13.67;7.80;;;9.10;99.90;;;;;;5045784;28;20687;-73
2023/12/14 13:17:39;;;;;;;11.50;7.83;;;9.10;99.90;;;;;;5048088;28;20778;-73
2023/12/14 13:20:25;;;;;;;9.40;6.97;;;9.20;99.90;;;;;;5042308;28;20461;-73
2023/12/14 13:23:11;;;;;;;10.30;6.80;;;9.20;99.90;;;;;;5046454;28;20795;-73
2023/12/14 13:25:56;;;;;;;10.00;7.10;;;9.20;99.90;;;;;;5046647;28;20409;-73
2023/12/14 13:28:43;;;;;;;10.93;7.47;;;9.20;99.90;;;;;;5048629;28;20826;-73
2023/12/14 13:31:29;;;;;;;11.53;7.67;;;9.20;99.90;;;;;;5040122;28;20560;-73
2023/12/14 13:34:14;;;;;;;8.73;6.20;;;9.20;99.90;;;;;;5050089;28;20461;-73
2023/12/14 13:37:00;;;;;;;12.20;7.50;;;9.20;99.90;;;;;;5045066;28;20422;-73
2023/12/14 13:39:48;;;;;;;8.90;6.80;;;9.10;99.90;;;;;;5046571;28;20449;-74
2023/12/14 13:42:33;;;;;;;14.50;6.63;;;9.20;99.90;;;;;;5041162;28;20476;-74
2023/12/14 13:45:20;;;;;;;10.33;7.43;;;9.30;99.90;;;;;;5039597;28;20492;-73
2023/12/14 13:48:07;;;;;;;10.90;6.60;;;9.30;99.90;;;;;;5046603;28;20423;-73
2023/12/14 13:50:52;;;;;;;9.80;6.80;;;9.20;99.90;;;;;;5045219;28;20580;-73
2023/12/14 13:53:39;;;;;;;11.50;6.87;;;9.10;99.90;;;;;;5050389;28;20968;-73
2023/12/14 13:56:24;;;;;;;9.23;6.80;;;9.10;99.90;;;;;;5039087;28;20426;-73
2023/12/14 13:59:10;;;;;;;7.80;6.20;;;9.20;99.90;;;;;;5049632;28;20454;-73
2023/12/14 14:01:57;;;;;;;8.80;5.90;;;9.10;99.90;;;;;;5047118;28;20430;-73
2023/12/14 14:04:43;;;;;;;9.17;6.90;;;9.10;99.90;;;;;;5031728;28;20537;-72
2023/12/14 14:07:28;;;;;;;11.87;7.80;;;9.10;99.90;;;;;;5035082;28;20457;-74
2023/12/14 14:10:14;;;;;;;10.60;6.03;;;9.00;99.90;;;;;;5032063;28;20465;-73
2023/12/14 14:13:00;;;;;;;8.60;5.83;;;9.00;99.90;;;;;;5037263;28;20431;-74
2023/12/14 14:15:46;;;;;;;10.83;6.87;;;9.00;99.90;;;;;;5048018;28;20504;-74